sensor_id;sensor_type;location;lat;lon;timestamp;temperature;humidity
69162;DHT22;56269;51.738;21.652;2023-11-25T00:01:33;0.42;99.18
69162;DHT22;56269;51.738;21.652;2023-11-25T00:03:59;0.39;99.19
69162;DHT22;56269;51.738;21.652;2023-11-25T00:06:27;0.35;99.38
69162;DHT22;56269;51.738;21.652;2023-11-25T00:08:53;0.39;99.17
69162;DHT22;56269;51.738;21.652;2023-11-25T00:11:19;0.39;99.21
69162;DHT22;56269;51.738;21.652;2023-11-25T00:13:45;0.38;99.36
69162;DHT22;56269;51.738;21.652;2023-11-25T00:16:12;0.43;99.33
69162;DHT22;56269;51.738;21.652;2023-11-25T00:18:38;0.42;99.41
69162;DHT22;56269;51.738;21.652;2023-11-25T00:21:04;0.42;99.33
69162;DHT22;56269;51.738;21.652;2023-11-25T00:23:30;0.39;99.56
69162;DHT22;56269;51.738;21.652;2023-11-25T00:25:56;0.38;99.66
69162;DHT22;56269;51.738;21.652;2023-11-25T00:28:22;0.42;99.67
69162;DHT22;56269;51.738;21.652;2023-11-25T00:30:49;0.38;99.83
69162;DHT22;56269;51.738;21.652;2023-11-25T00:33:15;0.39;99.85
69162;DHT22;56269;51.738;21.652;2023-11-25T00:35:42;0.32;99.99
69162;DHT22;56269;51.738;21.652;2023-11-25T00:38:08;0.36;99.99
69162;DHT22;56269;51.738;21.652;2023-11-25T00:40:35;0.36;99.98
69162;DHT22;56269;51.738;21.652;2023-11-25T00:43:01;0.32;99.99
69162;DHT22;56269;51.738;21.652;2023-11-25T00:45:28;0.33;99.99
69162;DHT22;56269;51.738;21.652;2023-11-25T00:47:54;0.32;99.99
69162;DHT22;56269;51.738;21.652;2023-11-25T00:50:22;0.30;99.99
69162;DHT22;56269;51.738;21.652;2023-11-25T00:52:50;0.35;99.99
69162;DHT22;56269;51.738;21.652;2023-11-25T00:55:18;0.32;99.99
69162;DHT22;56269;51.738;21.652;2023-11-25T00:57:44;0.32;99.90
69162;DHT22;56269;51.738;21.652;2023-11-25T01:00:10;0.32;99.93
69162;DHT22;56269;51.738;21.652;2023-11-25T01:02:43;0.33;99.91
69162;DHT22;56269;51.738;21.652;2023-11-25T01:05:09;0.38;99.72
69162;DHT22;56269;51.738;21.652;2023-11-25T01:07:35;0.41;99.59
69162;DHT22;56269;51.738;21.652;2023-11-25T01:10:03;0.39;99.51
69162;DHT22;56269;51.738;21.652;2023-11-25T01:12:30;0.45;99.39
69162;DHT22;56269;51.738;21.652;2023-11-25T01:14:57;0.43;99.31
69162;DHT22;56269;51.738;21.652;2023-11-25T01:17:22;0.39;99.24
69162;DHT22;56269;51.738;21.652;2023-11-25T01:19:52;0.43;99.28
69162;DHT22;56269;51.738;21.652;2023-11-25T01:22:18;0.45;99.28
69162;DHT22;56269;51.738;21.652;2023-11-25T01:24:47;0.41;99.25
69162;DHT22;56269;51.738;21.652;2023-11-25T01:27:13;0.42;99.13
69162;DHT22;56269;51.738;21.652;2023-11-25T01:29:40;0.38;99.42
69162;DHT22;56269;51.738;21.652;2023-11-25T01:32:06;0.43;99.34
69162;DHT22;56269;51.738;21.652;2023-11-25T01:34:32;0.49;99.00
69162;DHT22;56269;51.738;21.652;2023-11-25T01:36:58;0.43;99.15
69162;DHT22;56269;51.738;21.652;2023-11-25T01:39:25;0.46;99.13
69162;DHT22;56269;51.738;21.652;2023-11-25T01:41:51;0.46;99.13
69162;DHT22;56269;51.738;21.652;2023-11-25T01:44:18;0.56;98.95
69162;DHT22;56269;51.738;21.652;2023-11-25T01:46:44;0.53;98.94
69162;DHT22;56269;51.738;21.652;2023-11-25T01:49:12;0.53;98.85
69162;DHT22;56269;51.738;21.652;2023-11-25T01:51:41;0.48;98.93
69162;DHT22;56269;51.738;21.652;2023-11-25T01:54:08;0.42;99.02
69162;DHT22;56269;51.738;21.652;2023-11-25T01:56:36;0.42;99.04
69162;DHT22;56269;51.738;21.652;2023-11-25T01:59:03;0.43;98.98
69162;DHT22;56269;51.738;21.652;2023-11-25T02:01:33;0.42;99.14
69162;DHT22;56269;51.738;21.652;2023-11-25T02:04:00;0.45;99.17
69162;DHT22;56269;51.738;21.652;2023-11-25T02:06:26;0.42;99.06
69162;DHT22;56269;51.738;21.652;2023-11-25T02:08:53;0.52;99.03
69162;DHT22;56269;51.738;21.652;2023-11-25T02:11:19;0.48;98.96
69162;DHT22;56269;51.738;21.652;2023-11-25T02:13:46;0.56;98.57
69162;DHT22;56269;51.738;21.652;2023-11-25T02:16:12;0.52;98.69
69162;DHT22;56269;51.738;21.652;2023-11-25T02:18:39;0.52;98.66
69162;DHT22;56269;51.738;21.652;2023-11-25T02:21:05;0.59;98.44
69162;DHT22;56269;51.738;21.652;2023-11-25T02:23:32;0.64;98.02
69162;DHT22;56269;51.738;21.652;2023-11-25T02:25:58;0.67;97.87
69162;DHT22;56269;51.738;21.652;2023-11-25T02:28:24;0.63;98.07
69162;DHT22;56269;51.738;21.652;2023-11-25T02:30:51;0.62;98.06
69162;DHT22;56269;51.738;21.652;2023-11-25T02:33:18;0.64;98.19
69162;DHT22;56269;51.738;21.652;2023-11-25T02:35:45;0.66;98.05
69162;DHT22;56269;51.738;21.652;2023-11-25T02:38:15;0.73;97.81
69162;DHT22;56269;51.738;21.652;2023-11-25T02:40:44;0.73;98.03
69162;DHT22;56269;51.738;21.652;2023-11-25T02:43:11;0.69;98.19
69162;DHT22;56269;51.738;21.652;2023-11-25T02:45:39;0.69;98.58
69162;DHT22;56269;51.738;21.652;2023-11-25T02:48:05;0.66;99.03
69162;DHT22;56269;51.738;21.652;2023-11-25T02:50:32;0.63;99.23
69162;DHT22;56269;51.738;21.652;2023-11-25T02:53:02;0.62;99.39
69162;DHT22;56269;51.738;21.652;2023-11-25T02:55:30;0.57;99.65
69162;DHT22;56269;51.738;21.652;2023-11-25T02:57:56;0.59;99.73
69162;DHT22;56269;51.738;21.652;2023-11-25T03:00:22;0.50;99.89
69162;DHT22;56269;51.738;21.652;2023-11-25T03:02:49;0.50;99.99
69162;DHT22;56269;51.738;21.652;2023-11-25T03:05:17;0.45;99.99
69162;DHT22;56269;51.738;21.652;2023-11-25T03:07:43;0.43;99.99
69162;DHT22;56269;51.738;21.652;2023-11-25T03:10:10;0.46;99.99
69162;DHT22;56269;51.738;21.652;2023-11-25T03:12:39;0.45;99.99
69162;DHT22;56269;51.738;21.652;2023-11-25T03:15:07;0.39;99.99
69162;DHT22;56269;51.738;21.652;2023-11-25T03:17:34;0.39;99.99
69162;DHT22;56269;51.738;21.652;2023-11-25T03:20:00;0.39;99.99
69162;DHT22;56269;51.738;21.652;2023-11-25T03:22:26;0.36;99.99
69162;DHT22;56269;51.738;21.652;2023-11-25T03:24:52;0.36;99.99
69162;DHT22;56269;51.738;21.652;2023-11-25T03:27:18;0.35;99.99
69162;DHT22;56269;51.738;21.652;2023-11-25T03:29:44;0.35;99.99
69162;DHT22;56269;51.738;21.652;2023-11-25T03:32:11;0.30;99.99
69162;DHT22;56269;51.738;21.652;2023-11-25T03:34:37;0.32;99.99
69162;DHT22;56269;51.738;21.652;2023-11-25T03:37:04;0.30;99.99
69162;DHT22;56269;51.738;21.652;2023-11-25T03:39:30;0.30;99.99
69162;DHT22;56269;51.738;21.652;2023-11-25T03:41:57;0.30;99.99
69162;DHT22;56269;51.738;21.652;2023-11-25T03:44:23;0.28;99.99
69162;DHT22;56269;51.738;21.652;2023-11-25T03:46:49;0.30;99.99
69162;DHT22;56269;51.738;21.652;2023-11-25T03:49:15;0.28;99.99
69162;DHT22;56269;51.738;21.652;2023-11-25T03:51:41;0.29;99.99
69162;DHT22;56269;51.738;21.652;2023-11-25T03:54:07;0.28;99.99
69162;DHT22;56269;51.738;21.652;2023-11-25T03:56:34;0.30;99.99
69162;DHT22;56269;51.738;21.652;2023-11-25T03:59:01;0.30;99.99
69162;DHT22;56269;51.738;21.652;2023-11-25T04:01:27;0.32;99.99
69162;DHT22;56269;51.738;21.652;2023-11-25T04:03:53;0.29;99.99
69162;DHT22;56269;51.738;21.652;2023-11-25T04:06:19;0.28;99.99
69162;DHT22;56269;51.738;21.652;2023-11-25T04:08:45;0.26;99.99
69162;DHT22;56269;51.738;21.652;2023-11-25T04:11:12;0.25;99.99
69162;DHT22;56269;51.738;21.652;2023-11-25T04:13:38;0.22;99.99
69162;DHT22;56269;51.738;21.652;2023-11-25T04:16:04;0.29;99.99
69162;DHT22;56269;51.738;21.652;2023-11-25T04:18:31;0.25;99.99
69162;DHT22;56269;51.738;21.652;2023-11-25T04:20:58;0.30;99.99
69162;DHT22;56269;51.738;21.652;2023-11-25T04:23:24;0.33;99.99
69162;DHT22;56269;51.738;21.652;2023-11-25T04:25:51;0.30;99.99
69162;DHT22;56269;51.738;21.652;2023-11-25T04:28:17;0.28;99.99
69162;DHT22;56269;51.738;21.652;2023-11-25T04:30:43;0.29;99.99
69162;DHT22;56269;51.738;21.652;2023-11-25T04:33:09;0.26;99.99
69162;DHT22;56269;51.738;21.652;2023-11-25T04:35:36;0.26;99.99
69162;DHT22;56269;51.738;21.652;2023-11-25T04:38:03;0.22;99.99
69162;DHT22;56269;51.738;21.652;2023-11-25T04:40:31;0.16;99.99
69162;DHT22;56269;51.738;21.652;2023-11-25T04:42:57;0.13;99.99
69162;DHT22;56269;51.738;21.652;2023-11-25T04:45:24;0.13;99.99
69162;DHT22;56269;51.738;21.652;2023-11-25T04:47:51;0.12;99.99
69162;DHT22;56269;51.738;21.652;2023-11-25T04:50:18;0.09;99.99
69162;DHT22;56269;51.738;21.652;2023-11-25T04:52:46;0.09;99.99
69162;DHT22;56269;51.738;21.652;2023-11-25T04:55:13;0.08;99.99
69162;DHT22;56269;51.738;21.652;2023-11-25T04:57:40;0.11;99.99
69162;DHT22;56269;51.738;21.652;2023-11-25T05:00:08;0.06;99.99
69162;DHT22;56269;51.738;21.652;2023-11-25T05:02:37;0.05;99.99
69162;DHT22;56269;51.738;21.652;2023-11-25T05:05:04;0.03;99.99
69162;DHT22;56269;51.738;21.652;2023-11-25T05:07:31;0.05;99.99
69162;DHT22;56269;51.738;21.652;2023-11-25T05:09:57;-0.02;99.99
69162;DHT22;56269;51.738;21.652;2023-11-25T05:12:27;-0.03;99.99
69162;DHT22;56269;51.738;21.652;2023-11-25T05:14:53;-0.09;99.99
69162;DHT22;56269;51.738;21.652;2023-11-25T05:17:19;-0.12;99.99
69162;DHT22;56269;51.738;21.652;2023-11-25T05:19:46;-0.22;99.99
69162;DHT22;56269;51.738;21.652;2023-11-25T05:22:12;-0.25;99.99
69162;DHT22;56269;51.738;21.652;2023-11-25T05:24:38;-0.28;99.99
69162;DHT22;56269;51.738;21.652;2023-11-25T05:27:04;-0.30;99.99
69162;DHT22;56269;51.738;21.652;2023-11-25T05:29:31;-0.23;99.90
69162;DHT22;56269;51.738;21.652;2023-11-25T05:31:57;-0.28;99.81
69162;DHT22;56269;51.738;21.652;2023-11-25T05:34:27;-0.30;99.89
69162;DHT22;56269;51.738;21.652;2023-11-25T05:36:53;-0.33;99.93
69162;DHT22;56269;51.738;21.652;2023-11-25T05:39:19;-0.33;99.99
69162;DHT22;56269;51.738;21.652;2023-11-25T05:41:46;-0.33;99.98
69162;DHT22;56269;51.738;21.652;2023-11-25T05:44:15;-0.34;99.95
69162;DHT22;56269;51.738;21.652;2023-11-25T05:46:41;-0.40;99.83
69162;DHT22;56269;51.738;21.652;2023-11-25T05:49:08;-0.42;99.64
69162;DHT22;56269;51.738;21.652;2023-11-25T05:51:36;-0.46;99.61
69162;DHT22;56269;51.738;21.652;2023-11-25T05:54:05;-0.64;99.53
69162;DHT22;56269;51.738;21.652;2023-11-25T05:56:31;-0.71;99.81
69162;DHT22;56269;51.738;21.652;2023-11-25T05:58:58;-0.66;99.99
69162;DHT22;56269;51.738;21.652;2023-11-25T06:01:24;-0.61;99.99
69162;DHT22;56269;51.738;21.652;2023-11-25T06:03:52;-0.61;99.99
69162;DHT22;56269;51.738;21.652;2023-11-25T06:06:19;-0.61;99.99
69162;DHT22;56269;51.738;21.652;2023-11-25T06:08:47;-0.56;99.99
69162;DHT22;56269;51.738;21.652;2023-11-25T06:11:25;-0.49;99.99
69162;DHT22;56269;51.738;21.652;2023-11-25T06:13:53;-0.43;99.99
69162;DHT22;56269;51.738;21.652;2023-11-25T06:16:22;-0.43;99.99
69162;DHT22;56269;51.738;21.652;2023-11-25T06:18:49;-0.42;99.99
69162;DHT22;56269;51.738;21.652;2023-11-25T06:21:16;-0.34;99.98
69162;DHT22;56269;51.738;21.652;2023-11-25T06:23:42;-0.28;99.85
69162;DHT22;56269;51.738;21.652;2023-11-25T06:26:12;-0.26;99.89
69162;DHT22;56269;51.738;21.652;2023-11-25T06:28:45;-0.23;99.76
69162;DHT22;56269;51.738;21.652;2023-11-25T06:31:12;-0.18;99.72
69162;DHT22;56269;51.738;21.652;2023-11-25T06:33:39;-0.15;99.61
69162;DHT22;56269;51.738;21.652;2023-11-25T06:36:10;-0.12;99.34
69162;DHT22;56269;51.738;21.652;2023-11-25T06:38:37;-0.10;99.47
69162;DHT22;56269;51.738;21.652;2023-11-25T06:41:03;-0.09;99.44
69162;DHT22;56269;51.738;21.652;2023-11-25T06:43:30;-0.08;99.39
69162;DHT22;56269;51.738;21.652;2023-11-25T06:45:56;-0.09;99.40
69162;DHT22;56269;51.738;21.652;2023-11-25T06:48:23;-0.09;99.50
69162;DHT22;56269;51.738;21.652;2023-11-25T06:50:50;-0.10;99.60
69162;DHT22;56269;51.738;21.652;2023-11-25T06:53:17;-0.03;99.48
69162;DHT22;56269;51.738;21.652;2023-11-25T06:55:43;-0.02;99.39
69162;DHT22;56269;51.738;21.652;2023-11-25T06:58:13;-0.02;99.34
69162;DHT22;56269;51.738;21.652;2023-11-25T07:00:40;0.03;99.27
69162;DHT22;56269;51.738;21.652;2023-11-25T07:03:08;0.01;99.32
69162;DHT22;56269;51.738;21.652;2023-11-25T07:05:42;-0.03;99.45
69162;DHT22;56269;51.738;21.652;2023-11-25T07:08:09;-0.06;99.58
69162;DHT22;56269;51.738;21.652;2023-11-25T07:10:35;-0.05;99.68
69162;DHT22;56269;51.738;21.652;2023-11-25T07:13:03;-0.02;99.74
69162;DHT22;56269;51.738;21.652;2023-11-25T07:15:29;0.03;99.65
69162;DHT22;56269;51.738;21.652;2023-11-25T07:17:56;0.09;99.30
69162;DHT22;56269;51.738;21.652;2023-11-25T07:20:22;0.25;99.10
69162;DHT22;56269;51.738;21.652;2023-11-25T07:22:48;0.23;98.91
69162;DHT22;56269;51.738;21.652;2023-11-25T07:25:17;0.19;98.98
69162;DHT22;56269;51.738;21.652;2023-11-25T07:27:44;0.18;99.17
69162;DHT22;56269;51.738;21.652;2023-11-25T07:30:13;0.29;99.07
69162;DHT22;56269;51.738;21.652;2023-11-25T07:32:39;0.42;98.90
69162;DHT22;56269;51.738;21.652;2023-11-25T07:35:06;0.42;98.65
69162;DHT22;56269;51.738;21.652;2023-11-25T07:37:34;0.43;98.66
69162;DHT22;56269;51.738;21.652;2023-11-25T07:40:04;0.45;98.70
69162;DHT22;56269;51.738;21.652;2023-11-25T07:42:34;0.54;98.56
69162;DHT22;56269;51.738;21.652;2023-11-25T07:45:00;0.53;98.35
69162;DHT22;56269;51.738;21.652;2023-11-25T07:47:26;0.45;98.45
69162;DHT22;56269;51.738;21.652;2023-11-25T07:49:52;0.35;98.97
69162;DHT22;56269;51.738;21.652;2023-11-25T07:52:19;0.36;99.14
69162;DHT22;56269;51.738;21.652;2023-11-25T07:54:44;0.36;99.21
69162;DHT22;56269;51.738;21.652;2023-11-25T07:57:11;0.38;99.27
69162;DHT22;56269;51.738;21.652;2023-11-25T07:59:37;0.36;99.29
69162;DHT22;56269;51.738;21.652;2023-11-25T08:02:04;0.29;99.21
69162;DHT22;56269;51.738;21.652;2023-11-25T08:04:30;0.26;99.41
69162;DHT22;56269;51.738;21.652;2023-11-25T08:06:56;0.19;99.77
69162;DHT22;56269;51.738;21.652;2023-11-25T08:09:22;0.19;99.89
69162;DHT22;56269;51.738;21.652;2023-11-25T08:11:51;0.16;99.99
69162;DHT22;56269;51.738;21.652;2023-11-25T08:14:17;0.21;99.99
69162;DHT22;56269;51.738;21.652;2023-11-25T08:16:43;0.22;99.99
69162;DHT22;56269;51.738;21.652;2023-11-25T08:19:10;0.22;99.99
69162;DHT22;56269;51.738;21.652;2023-11-25T08:21:36;0.29;99.90
69162;DHT22;56269;51.738;21.652;2023-11-25T08:24:02;0.29;99.62
69162;DHT22;56269;51.738;21.652;2023-11-25T08:26:29;0.38;99.47
69162;DHT22;56269;51.738;21.652;2023-11-25T08:28:55;0.43;99.16
69162;DHT22;56269;51.738;21.652;2023-11-25T08:31:21;0.43;99.00
69162;DHT22;56269;51.738;21.652;2023-11-25T08:33:48;0.43;98.88
69162;DHT22;56269;51.738;21.652;2023-11-25T08:36:15;0.74;98.31
69162;DHT22;56269;51.738;21.652;2023-11-25T08:38:43;0.87;97.53
69162;DHT22;56269;51.738;21.652;2023-11-25T08:41:10;0.79;97.25
69162;DHT22;56269;51.738;21.652;2023-11-25T08:43:40;0.77;97.39
69162;DHT22;56269;51.738;21.652;2023-11-25T08:46:10;0.77;97.70
69162;DHT22;56269;51.738;21.652;2023-11-25T08:48:36;0.70;97.70
69162;DHT22;56269;51.738;21.652;2023-11-25T08:51:02;0.66;97.75
69162;DHT22;56269;51.738;21.652;2023-11-25T08:53:31;0.60;97.94
69162;DHT22;56269;51.738;21.652;2023-11-25T08:55:58;0.60;98.00
69162;DHT22;56269;51.738;21.652;2023-11-25T08:58:27;0.64;98.09
69162;DHT22;56269;51.738;21.652;2023-11-25T09:00:55;0.56;98.32
69162;DHT22;56269;51.738;21.652;2023-11-25T09:03:22;0.66;97.96
69162;DHT22;56269;51.738;21.652;2023-11-25T09:05:49;0.94;97.34
69162;DHT22;56269;51.738;21.652;2023-11-25T09:08:16;0.81;97.33
69162;DHT22;56269;51.738;21.652;2023-11-25T09:10:43;0.88;97.16
69162;DHT22;56269;51.738;21.652;2023-11-25T09:13:09;0.80;97.12
69162;DHT22;56269;51.738;21.652;2023-11-25T09:15:37;0.73;97.35
69162;DHT22;56269;51.738;21.652;2023-11-25T09:18:03;0.52;97.74
69162;DHT22;56269;51.738;21.652;2023-11-25T09:20:33;0.46;98.19
69162;DHT22;56269;51.738;21.652;2023-11-25T09:23:02;0.48;98.28
69162;DHT22;56269;51.738;21.652;2023-11-25T09:25:29;0.52;98.02
69162;DHT22;56269;51.738;21.652;2023-11-25T09:27:56;0.60;97.31
69162;DHT22;56269;51.738;21.652;2023-11-25T09:30:23;0.64;97.38
69162;DHT22;56269;51.738;21.652;2023-11-25T09:32:49;0.62;97.63
69162;DHT22;56269;51.738;21.652;2023-11-25T09:35:15;0.81;97.41
69162;DHT22;56269;51.738;21.652;2023-11-25T09:37:42;0.88;96.87
69162;DHT22;56269;51.738;21.652;2023-11-25T09:40:10;0.87;95.82
69162;DHT22;56269;51.738;21.652;2023-11-25T09:42:45;0.94;96.30
69162;DHT22;56269;51.738;21.652;2023-11-25T09:45:12;0.88;96.54
69162;DHT22;56269;51.738;21.652;2023-11-25T09:47:42;0.79;96.81
69162;DHT22;56269;51.738;21.652;2023-11-25T09:50:12;0.70;97.12
69162;DHT22;56269;51.738;21.652;2023-11-25T09:52:52;0.73;97.37
69162;DHT22;56269;51.738;21.652;2023-11-25T09:55:20;0.77;97.24
69162;DHT22;56269;51.738;21.652;2023-11-25T09:57:58;0.81;97.03
69162;DHT22;56269;51.738;21.652;2023-11-25T10:00:25;0.79;97.21
69162;DHT22;56269;51.738;21.652;2023-11-25T10:02:54;0.77;97.11
69162;DHT22;56269;51.738;21.652;2023-11-25T10:05:21;0.72;96.87
69162;DHT22;56269;51.738;21.652;2023-11-25T10:07:48;0.70;96.96
69162;DHT22;56269;51.738;21.652;2023-11-25T10:10:14;0.70;97.01
69162;DHT22;56269;51.738;21.652;2023-11-25T10:12:47;0.69;96.70
69162;DHT22;56269;51.738;21.652;2023-11-25T10:15:15;0.76;96.80
69162;DHT22;56269;51.738;21.652;2023-11-25T10:17:44;0.72;96.75
69162;DHT22;56269;51.738;21.652;2023-11-25T10:20:11;0.76;96.49
69162;DHT22;56269;51.738;21.652;2023-11-25T10:22:53;0.85;96.29
69162;DHT22;56269;51.738;21.652;2023-11-25T10:25:22;0.97;95.68
69162;DHT22;56269;51.738;21.652;2023-11-25T10:27:51;1.00;95.60
69162;DHT22;56269;51.738;21.652;2023-11-25T10:30:21;1.14;95.52
69162;DHT22;56269;51.738;21.652;2023-11-25T10:32:48;0.94;95.60
69162;DHT22;56269;51.738;21.652;2023-11-25T10:35:15;0.72;95.48
69162;DHT22;56269;51.738;21.652;2023-11-25T10:37:41;0.67;96.26
69162;DHT22;56269;51.738;21.652;2023-11-25T10:40:08;0.73;95.78
69162;DHT22;56269;51.738;21.652;2023-11-25T10:42:42;0.76;96.43
69162;DHT22;56269;51.738;21.652;2023-11-25T10:45:16;0.62;94.73
69162;DHT22;56269;51.738;21.652;2023-11-25T10:47:42;0.62;94.20
69162;DHT22;56269;51.738;21.652;2023-11-25T10:50:10;0.73;93.74
69162;DHT22;56269;51.738;21.652;2023-11-25T10:52:42;0.59;94.12
69162;DHT22;56269;51.738;21.652;2023-11-25T10:55:09;0.83;94.15
69162;DHT22;56269;51.738;21.652;2023-11-25T10:57:35;0.91;93.80
69162;DHT22;56269;51.738;21.652;2023-11-25T11:00:02;0.93;94.01
69162;DHT22;56269;51.738;21.652;2023-11-25T11:02:39;0.84;94.25
69162;DHT22;56269;51.738;21.652;2023-11-25T11:05:09;0.88;94.80
69162;DHT22;56269;51.738;21.652;2023-11-25T11:07:46;0.70;95.09
69162;DHT22;56269;51.738;21.652;2023-11-25T11:10:17;0.63;96.04
69162;DHT22;56269;51.738;21.652;2023-11-25T11:12:59;0.48;96.63
69162;DHT22;56269;51.738;21.652;2023-11-25T11:15:27;0.38;97.21
69162;DHT22;56269;51.738;21.652;2023-11-25T11:18:23;0.29;97.77
69162;DHT22;56269;51.738;21.652;2023-11-25T11:20:55;0.23;98.24
69162;DHT22;56269;51.738;21.652;2023-11-25T11:23:21;0.18;98.62
69162;DHT22;56269;51.738;21.652;2023-11-25T11:33:46;0.21;98.27
69162;DHT22;56269;51.738;21.652;2023-11-25T11:36:28;0.22;97.71
69162;DHT22;56269;51.738;21.652;2023-11-25T11:38:57;0.15;97.79
69162;DHT22;56269;51.738;21.652;2023-11-25T11:41:25;0.11;98.22
69162;DHT22;56269;51.738;21.652;2023-11-25T11:44:06;0.03;98.48
69162;DHT22;56269;51.738;21.652;2023-11-25T11:46:37;0.09;98.51
69162;DHT22;56269;51.738;21.652;2023-11-25T11:49:13;0.13;98.60
69162;DHT22;56269;51.738;21.652;2023-11-25T11:52:01;0.08;98.57
69162;DHT22;56269;51.738;21.652;2023-11-25T11:54:27;0.11;98.55
69162;DHT22;56269;51.738;21.652;2023-11-25T11:56:59;0.08;98.59
69162;DHT22;56269;51.738;21.652;2023-11-25T11:59:57;0.18;98.73
69162;DHT22;56269;51.738;21.652;2023-11-25T12:02:31;0.19;98.52
69162;DHT22;56269;51.738;21.652;2023-11-25T12:04:58;0.28;98.20
69162;DHT22;56269;51.738;21.652;2023-11-25T12:07:25;0.28;98.27
69162;DHT22;56269;51.738;21.652;2023-11-25T12:09:54;0.26;98.32
69162;DHT22;56269;51.738;21.652;2023-11-25T12:12:20;0.42;98.16
69162;DHT22;56269;51.738;21.652;2023-11-25T12:14:48;0.32;97.93
69162;DHT22;56269;51.738;21.652;2023-11-25T12:17:15;0.30;98.14
69162;DHT22;56269;51.738;21.652;2023-11-25T12:19:42;0.36;98.23
69162;DHT22;56269;51.738;21.652;2023-11-25T12:22:10;0.29;98.36
69162;DHT22;56269;51.738;21.652;2023-11-25T12:24:41;0.22;98.34
69162;DHT22;56269;51.738;21.652;2023-11-25T12:27:10;0.15;98.66
69162;DHT22;56269;51.738;21.652;2023-11-25T12:29:37;0.18;98.91
69162;DHT22;56269;51.738;21.652;2023-11-25T12:32:03;0.11;99.10
69162;DHT22;56269;51.738;21.652;2023-11-25T12:34:29;0.08;99.26
69162;DHT22;56269;51.738;21.652;2023-11-25T12:36:59;0.03;99.40
69162;DHT22;56269;51.738;21.652;2023-11-25T12:39:26;0.05;99.23
69162;DHT22;56269;51.738;21.652;2023-11-25T12:41:53;0.09;98.94
69162;DHT22;56269;51.738;21.652;2023-11-25T12:44:20;0.18;98.76
69162;DHT22;56269;51.738;21.652;2023-11-25T12:47:03;0.13;98.93
69162;DHT22;56269;51.738;21.652;2023-11-25T12:49:31;0.12;98.94
69162;DHT22;56269;51.738;21.652;2023-11-25T12:51:58;0.09;99.14
69162;DHT22;56269;51.738;21.652;2023-11-25T12:54:24;0.05;99.17
69162;DHT22;56269;51.738;21.652;2023-11-25T12:56:53;0.09;99.17
69162;DHT22;56269;51.738;21.652;2023-11-25T12:59:23;0.08;98.53
69162;DHT22;56269;51.738;21.652;2023-11-25T13:01:52;0.09;98.41
69162;DHT22;56269;51.738;21.652;2023-11-25T13:04:19;0.06;98.80
69162;DHT22;56269;51.738;21.652;2023-11-25T13:06:49;0.06;98.56
69162;DHT22;56269;51.738;21.652;2023-11-25T13:09:16;0.02;98.88
69162;DHT22;56269;51.738;21.652;2023-11-25T13:11:46;0.03;98.73
69162;DHT22;56269;51.738;21.652;2023-11-25T13:14:12;0.03;98.61
69162;DHT22;56269;51.738;21.652;2023-11-25T13:16:39;0.08;97.78
69162;DHT22;56269;51.738;21.652;2023-11-25T13:19:05;0.06;97.95
69162;DHT22;56269;51.738;21.652;2023-11-25T13:21:34;0.08;96.91
69162;DHT22;56269;51.738;21.652;2023-11-25T13:24:01;0.05;97.21
69162;DHT22;56269;51.738;21.652;2023-11-25T13:26:27;0.05;97.18
69162;DHT22;56269;51.738;21.652;2023-11-25T13:28:53;0.06;97.47
69162;DHT22;56269;51.738;21.652;2023-11-25T13:31:20;0.03;97.58
69162;DHT22;56269;51.738;21.652;2023-11-25T13:33:47;-0.01;97.32
69162;DHT22;56269;51.738;21.652;2023-11-25T13:36:13;0.03;97.20
69162;DHT22;56269;51.738;21.652;2023-11-25T13:38:39;-0.01;97.54
69162;DHT22;56269;51.738;21.652;2023-11-25T13:41:06;-0.02;97.53
69162;DHT22;56269;51.738;21.652;2023-11-25T13:43:33;-0.02;97.75
69162;DHT22;56269;51.738;21.652;2023-11-25T13:45:59;-0.05;97.93
69162;DHT22;56269;51.738;21.652;2023-11-25T13:48:26;-0.03;97.92
69162;DHT22;56269;51.738;21.652;2023-11-25T13:50:52;-0.06;98.28
69162;DHT22;56269;51.738;21.652;2023-11-25T13:53:18;-0.06;98.29
69162;DHT22;56269;51.738;21.652;2023-11-25T13:55:47;-0.08;98.57
69162;DHT22;56269;51.738;21.652;2023-11-25T13:58:14;-0.06;98.37
69162;DHT22;56269;51.738;21.652;2023-11-25T14:00:44;-0.08;98.47
69162;DHT22;56269;51.738;21.652;2023-11-25T14:03:10;-0.08;98.46
69162;DHT22;56269;51.738;21.652;2023-11-25T14:05:39;-0.08;98.56
69162;DHT22;56269;51.738;21.652;2023-11-25T14:08:09;-0.03;98.19
69162;DHT22;56269;51.738;21.652;2023-11-25T14:10:38;-0.03;98.06
69162;DHT22;56269;51.738;21.652;2023-11-25T14:13:05;-0.02;98.14
69162;DHT22;56269;51.738;21.652;2023-11-25T14:15:32;-0.03;98.28
69162;DHT22;56269;51.738;21.652;2023-11-25T14:17:58;-0.05;98.23
69162;DHT22;56269;51.738;21.652;2023-11-25T14:20:28;-0.03;98.28
69162;DHT22;56269;51.738;21.652;2023-11-25T14:22:54;-0.06;98.32
69162;DHT22;56269;51.738;21.652;2023-11-25T14:25:22;-0.05;98.05
69162;DHT22;56269;51.738;21.652;2023-11-25T14:27:49;-0.06;97.87
69162;DHT22;56269;51.738;21.652;2023-11-25T14:30:16;-0.02;96.84
69162;DHT22;56269;51.738;21.652;2023-11-25T14:32:49;-0.02;96.32
69162;DHT22;56269;51.738;21.652;2023-11-25T14:35:16;0.03;96.12
69162;DHT22;56269;51.738;21.652;2023-11-25T14:37:43;0.01;95.73
69162;DHT22;56269;51.738;21.652;2023-11-25T14:40:11;-0.01;95.99
69162;DHT22;56269;51.738;21.652;2023-11-25T14:42:40;0.02;95.50
69162;DHT22;56269;51.738;21.652;2023-11-25T14:45:07;-0.08;96.02
69162;DHT22;56269;51.738;21.652;2023-11-25T14:47:34;-0.02;96.37
69162;DHT22;56269;51.738;21.652;2023-11-25T14:50:02;-0.03;96.42
69162;DHT22;56269;51.738;21.652;2023-11-25T14:52:28;-0.06;96.75
69162;DHT22;56269;51.738;21.652;2023-11-25T14:54:56;-0.02;97.10
69162;DHT22;56269;51.738;21.652;2023-11-25T14:57:23;-0.05;97.23
69162;DHT22;56269;51.738;21.652;2023-11-25T14:59:49;-0.02;97.35
69162;DHT22;56269;51.738;21.652;2023-11-25T15:02:15;0.01;96.79
69162;DHT22;56269;51.738;21.652;2023-11-25T15:04:43;0.01;96.99
69162;DHT22;56269;51.738;21.652;2023-11-25T15:07:09;0.01;97.09
69162;DHT22;56269;51.738;21.652;2023-11-25T15:09:36;0.05;96.40
69162;DHT22;56269;51.738;21.652;2023-11-25T15:12:03;0.08;95.84
69162;DHT22;56269;51.738;21.652;2023-11-25T15:14:30;0.08;96.07
69162;DHT22;56269;51.738;21.652;2023-11-25T15:16:57;0.08;95.55
69162;DHT22;56269;51.738;21.652;2023-11-25T15:19:24;0.05;95.67
69162;DHT22;56269;51.738;21.652;2023-11-25T15:21:51;0.01;95.65
69162;DHT22;56269;51.738;21.652;2023-11-25T15:24:19;0.03;95.65
69162;DHT22;56269;51.738;21.652;2023-11-25T15:26:45;-0.01;95.64
69162;DHT22;56269;51.738;21.652;2023-11-25T15:29:12;-0.03;95.64
69162;DHT22;56269;51.738;21.652;2023-11-25T15:31:38;-0.05;95.53
69162;DHT22;56269;51.738;21.652;2023-11-25T15:34:08;-0.06;95.91
69162;DHT22;56269;51.738;21.652;2023-11-25T15:36:34;-0.06;96.01
69162;DHT22;56269;51.738;21.652;2023-11-25T15:39:02;-0.09;96.16